^^
Station Historical Data
Daily Summary for January 30, 2018 Units:  English    Metric   Both
« Previous Day
Next Day »
Daily Weekly Monthly Yearly Custom
  High: Low: Average:
Temperature: TemperatureC °F -3.6 °F -2.3 °F
Dew Point: DewpointC °F -4.9 °F -3.3 °F
Humidity: Humidity% 91% 93%
Wind Speed: WindSpeedKMHmph 0.0mph 0.5mph
Wind Gust: WindSpeedGustKMHmph - -
Wind- - ENE
Pressure: PressurehPa in 997.9 in -
Precipitation: 0.5 in    
Historical Graphs
 
 
Tabular Data for January 30, 2018
Time Temperature Dew Point Pressure Wind Wind Speed Wind Gust Humidity Rainfall Rate (Hourly) solar Conditions
TemperatureC °F DewpointC °F PressurehPa in Calm     Humidity% HourlyPrecipMM in SoftwareType W/m2 Conditions
00:00 -1.0 °F -1.8 °F 998.5 in ENE 2.6 mph 5.6 mph 94% 0.0 in WeatherDisplay:10.37 W/m2 FEW
00:05 -1.1 °F -1.9 °F 998.5 in ENE 1.6 mph 6.4 mph 94% 0.0 in WeatherDisplay:10.37 W/m2 FEW
00:10 -1.1 °F -1.9 °F 998.5 in ENE 1.0 mph 1.6 mph 94% 0.0 in WeatherDisplay:10.37 W/m2 FEW
00:15 -1.1 °F -1.9 °F 998.5 in ENE 0.3 mph 3.7 mph 94% 0.0 in WeatherDisplay:10.37 W/m2 FEW
00:20 -1.1 °F -1.9 °F 998.5 in Calm   3.7 mph 94% 0.0 in WeatherDisplay:10.37 W/m2 FEW
00:25 -1.1 °F -1.9 °F 998.5 in ENE 0.8 mph 5.6 mph 94% 0.0 in WeatherDisplay:10.37 W/m2 FEW
00:30 -1.1 °F -1.9 °F 998.5 in Calm     94% 0.0 in WeatherDisplay:10.37 W/m2 FEW
00:35 -1.1 °F -1.9 °F 998.5 in NE 4.2 mph 9.3 mph 94% 0.0 in WeatherDisplay:10.37 W/m2 FEW
00:40 -1.1 °F -1.9 °F 998.5 in ENE 6.0 mph 11.1 mph 94% 0.0 in WeatherDisplay:10.37 W/m2 FEW
00:45 -1.1 °F -1.9 °F 998.5 in ENE 5.6 mph 9.3 mph 94% 0.0 in WeatherDisplay:10.37 W/m2 FEW
00:50 -1.2 °F -2.0 °F 998.5 in ENE 3.9 mph 9.3 mph 94% 0.0 in WeatherDisplay:10.37 W/m2 FEW
00:55 -1.2 °F -2.0 °F 998.5 in ENE 4.8 mph 14.8 mph 94% 0.0 in WeatherDisplay:10.37 W/m2 FEW
01:00 -1.2 °F -2.0 °F 998.5 in Calm     94% 0.0 in WeatherDisplay:10.37 W/m2 FEW
01:05 -1.2 °F -2.0 °F 998.5 in ENE 3.5 mph 8.0 mph 94% 0.0 in WeatherDisplay:10.37 W/m2 FEW
01:10 -1.2 °F -2.0 °F 998.5 in ENE 1.6 mph 5.6 mph 94% 0.0 in WeatherDisplay:10.37 W/m2 FEW
01:15 -1.2 °F -2.1 °F 998.5 in Calm     94% 0.0 in WeatherDisplay:10.37 W/m2 FEW
01:20 -1.2 °F -2.1 °F 998.5 in Calm     94% 0.0 in WeatherDisplay:10.37 W/m2 FEW
01:25 -1.2 °F -2.1 °F 998.5 in ENE 1.3 mph 3.7 mph 94% 0.0 in WeatherDisplay:10.37 W/m2 FEW
01:30 -1.2 °F -2.0 °F 998.5 in ENE 1.3 mph 5.6 mph 94% 0.0 in WeatherDisplay:10.37 W/m2 FEW
01:35 -1.2 °F -2.0 °F 998.2 in Calm   7.4 mph 94% 0.0 in WeatherDisplay:10.37 W/m2 FEW
01:40 -1.2 °F -2.0 °F 998.2 in Calm     94% 0.0 in WeatherDisplay:10.37 W/m2 FEW
01:45 -1.2 °F -2.0 °F 998.2 in ENE 4.8 mph 7.4 mph 94% 0.0 in WeatherDisplay:10.37 W/m2 FEW
01:50 -1.2 °F -2.1 °F 998.2 in ENE 1.9 mph 5.6 mph 94% 0.0 in WeatherDisplay:10.37 W/m2 FEW
01:55 -1.2 °F -2.1 °F 998.2 in ENE 0.8 mph 3.7 mph 94% 0.0 in WeatherDisplay:10.37 W/m2 FEW
02:00 -1.2 °F -2.1 °F 998.2 in ENE 3.9 mph 7.4 mph 94% 0.0 in WeatherDisplay:10.37 W/m2 FEW
02:05 -1.2 °F -2.1 °F 998.2 in Calm     94% 0.0 in WeatherDisplay:10.37 W/m2 FEW
02:10 -1.2 °F -2.1 °F 998.2 in ENE 1.1 mph 5.6 mph 94% 0.0 in WeatherDisplay:10.37 W/m2 FEW
02:15 -1.2 °F -2.1 °F 998.2 in Calm     94% 0.0 in WeatherDisplay:10.37 W/m2 FEW
02:20 -1.2 °F -2.1 °F 998.2 in Calm   3.7 mph 94% 0.0 in WeatherDisplay:10.37 W/m2 FEW
02:25 -1.2 °F -2.1 °F 998.2 in ENE 2.1 mph 8.0 mph 94% 0.0 in WeatherDisplay:10.37 W/m2 FEW
02:30 -1.3 °F -2.1 °F 998.2 in ENE 5.5 mph 9.3 mph 94% 0.0 in WeatherDisplay:10.37 W/m2 FEW
02:35 -1.3 °F -2.1 °F 998.2 in ENE 0.2 mph 3.2 mph 94% 0.0 in WeatherDisplay:10.37 W/m2 FEW
02:40 -1.3 °F -2.1 °F 998.2 in ENE 5.8 mph 9.3 mph 94% 0.0 in WeatherDisplay:10.37 W/m2 FEW
02:45 -1.3 °F -2.1 °F 997.9 in ENE 1.1 mph 5.6 mph 94% 0.0 in WeatherDisplay:10.37 W/m2 FEW
02:50 -1.3 °F -2.1 °F 997.9 in Calm     94% 0.0 in WeatherDisplay:10.37 W/m2 FEW
02:55 -1.3 °F -2.1 °F 998.2 in NE 0.2 mph 1.6 mph 94% 0.0 in WeatherDisplay:10.37 W/m2 FEW
03:00 -1.3 °F -2.1 °F 998.2 in Calm     94% 0.0 in WeatherDisplay:10.37 W/m2 FEW
03:05 -1.3 °F -2.1 °F 997.9 in ENE 1.1 mph 7.4 mph 94% 0.0 in WeatherDisplay:10.37 W/m2 FEW
03:10 -1.3 °F -2.2 °F 998.2 in ENE 2.1 mph 5.6 mph 94% 0.0 in WeatherDisplay:10.37 W/m2 FEW
03:15 -1.3 °F -2.2 °F 997.9 in ENE 1.8 mph 14.5 mph 94% 0.0 in WeatherDisplay:10.37 W/m2 FEW
03:20 -1.4 °F -2.2 °F 997.9 in ENE 2.9 mph 5.6 mph 94% 0.0 in WeatherDisplay:10.37 W/m2 FEW
03:25 -1.4 °F -2.2 °F 997.9 in Calm   1.9 mph 94% 0.0 in WeatherDisplay:10.37 W/m2 FEW
03:30 -1.4 °F -2.3 °F 997.9 in ENE 3.1 mph 5.6 mph 94% 0.0 in WeatherDisplay:10.37 W/m2 FEW
03:35 -1.4 °F -2.3 °F 997.9 in ENE 9.2 mph 14.8 mph 94% 0.0 in WeatherDisplay:10.37 W/m2 FEW
03:40 -1.4 °F -2.3 °F 997.9 in Calm   7.4 mph 94% 0.0 in WeatherDisplay:10.37 W/m2 FEW
03:45 -1.4 °F -2.3 °F 997.9 in ENE 0.6 mph 4.8 mph 94% 0.0 in WeatherDisplay:10.37 W/m2 FEW
03:50 -1.4 °F -2.3 °F 997.9 in ENE 2.7 mph 5.6 mph 94% 0.0 in WeatherDisplay:10.37 W/m2 FEW
03:55 -1.5 °F -2.3 °F 997.9 in ENE 3.2 mph 9.3 mph 94% 0.0 in WeatherDisplay:10.37 W/m2 FEW
04:00 -1.5 °F -2.3 °F 997.9 in Calm     94% 0.0 in WeatherDisplay:10.37 W/m2 FEW
04:05 -1.6 °F -2.4 °F 997.9 in ENE 1.9 mph 12.9 mph 94% 0.0 in WeatherDisplay:10.37 W/m2 FEW
04:10 -1.6 °F -2.4 °F 997.9 in Calm   5.6 mph 94% 0.0 in WeatherDisplay:10.37 W/m2 FEW
04:15 -1.6 °F -2.4 °F 997.9 in ENE 0.8 mph 5.6 mph 94% 0.0 in WeatherDisplay:10.37 W/m2 FEW
04:20 -1.6 °F -2.4 °F 997.9 in ENE 1.9 mph 5.6 mph 94% 0.0 in WeatherDisplay:10.37 W/m2 FEW
04:25 -1.6 °F -2.6 °F 997.9 in ENE 0.6 mph 3.7 mph 93% 0.0 in WeatherDisplay:10.37 W/m2 FEW
04:30 -1.6 °F -2.6 °F 997.9 in ENE 2.7 mph 5.6 mph 93% 0.0 in WeatherDisplay:10.37 W/m2 FEW
04:35 -1.6 °F -2.6 °F 997.9 in ENE 0.3 mph 5.6 mph 93% 0.0 in WeatherDisplay:10.37 W/m2 FEW
04:40 -1.6 °F -2.6 °F 997.9 in ENE 0.3 mph 5.6 mph 93% 0.0 in WeatherDisplay:10.37 W/m2 FEW
04:45 -1.6 °F -2.6 °F 997.9 in ENE 2.4 mph 5.6 mph 93% 0.0 in WeatherDisplay:10.37 W/m2 FEW
04:50 -1.6 °F -2.6 °F 997.9 in ENE 0.2 mph 3.2 mph 93% 0.0 in WeatherDisplay:10.37 W/m2 FEW
04:55 -1.7 °F -2.7 °F 997.9 in Calm     93% 0.0 in WeatherDisplay:10.37 W/m2 FEW
05:00 -1.7 °F -2.7 °F 997.9 in Calm     93% 0.0 in WeatherDisplay:10.37 W/m2 FEW
05:05 -1.7 °F -2.7 °F 997.9 in Calm   3.2 mph 93% 0.0 in WeatherDisplay:10.37 W/m2 FEW
05:10 -1.7 °F -2.7 °F 998.2 in Calm     93% 0.0 in WeatherDisplay:10.37 W/m2 FEW
05:15 -1.7 °F -2.7 °F 998.2 in ENE 0.5 mph 7.4 mph 93% 0.0 in WeatherDisplay:10.37 W/m2 FEW
05:20 -1.7 °F -2.7 °F 998.2 in Calm     93% 0.0 in WeatherDisplay:10.37 W/m2 FEW
05:25 -1.7 °F -2.7 °F 998.2 in Calm     93% 0.0 in WeatherDisplay:10.37 W/m2 FEW
05:30 -1.7 °F -2.7 °F 998.2 in Calm     93% 0.0 in WeatherDisplay:10.37 W/m2 FEW
05:35 -1.7 °F -2.7 °F 998.2 in ENE 0.2 mph 3.7 mph 93% 0.0 in WeatherDisplay:10.37 W/m2 FEW
05:40 -1.7 °F -2.7 °F 998.2 in Calm     93% 0.0 in WeatherDisplay:10.37 W/m2 FEW
05:45 -1.7 °F -2.7 °F 998.2 in Calm   3.7 mph 93% 0.0 in WeatherDisplay:10.37 W/m2 FEW
05:50 -1.7 °F -2.7 °F 998.2 in ENE 0.6 mph 4.8 mph 93% 0.0 in WeatherDisplay:10.37 W/m2 FEW
05:55 -1.7 °F -2.7 °F 998.2 in Calm   3.7 mph 93% 0.0 in WeatherDisplay:10.37 W/m2 FEW
06:00 -1.7 °F -2.7 °F 998.2 in Calm     93% 0.0 in WeatherDisplay:10.37 W/m2 FEW
06:05 -1.7 °F -2.7 °F 998.2 in ENE 2.9 mph 5.6 mph 93% 0.0 in WeatherDisplay:10.37 W/m2 FEW
06:10 -1.8 °F -2.8 °F 998.2 in Calm     93% 0.0 in WeatherDisplay:10.37 W/m2 FEW
06:15 -1.8 °F -2.8 °F 998.2 in ENE 0.2 mph 1.9 mph 93% 0.0 in WeatherDisplay:10.37 W/m2 FEW
06:20 -1.8 °F -2.8 °F 998.2 in Calm     93% 0.0 in WeatherDisplay:10.37 W/m2 FEW
06:25 -1.8 °F -2.8 °F 998.2 in ENE 1.0 mph 4.8 mph 93% 0.0 in WeatherDisplay:10.37 W/m2 FEW
06:30 -1.8 °F -2.8 °F 998.2 in ENE 0.5 mph 3.2 mph 93% 0.0 in WeatherDisplay:10.37 W/m2 FEW
06:35 -1.8 °F -2.8 °F 998.2 in ENE 2.1 mph 5.6 mph 93% 0.0 in WeatherDisplay:10.37 W/m2 FEW
06:40 -1.8 °F -2.8 °F 998.5 in ENE 1.0 mph 3.7 mph 93% 0.0 in WeatherDisplay:10.37 W/m2 FEW
06:45 -1.8 °F -2.8 °F 998.5 in Calm   3.7 mph 93% 0.0 in WeatherDisplay:10.37 W/m2 FEW
06:50 -1.8 °F -2.8 °F 998.5 in ENE 1.0 mph 3.2 mph 93% 0.0 in WeatherDisplay:10.37 W/m2 FEW
06:55 -1.8 °F -2.8 °F 998.5 in Calm     93% 0.0 in WeatherDisplay:10.37 W/m2 FEW
07:00 -1.8 °F -2.8 °F 998.5 in ENE 0.2 mph 1.9 mph 93% 0.0 in WeatherDisplay:10.37 W/m2 FEW
07:05 -1.8 °F -2.8 °F 998.5 in Calm     93% 0.0 in WeatherDisplay:10.37 W/m2 FEW
07:10 -1.9 °F -2.9 °F 998.5 in Calm     93% 0.0 in WeatherDisplay:10.37 W/m2 FEW
07:15 -1.9 °F -2.9 °F 998.5 in Calm     93% 0.0 in WeatherDisplay:10.37 W/m2 FEW
07:20 -1.9 °F -2.9 °F 998.5 in Calm     93% 0.0 in WeatherDisplay:10.37 W/m2 FEW
07:25 -1.9 °F -2.9 °F 998.9 in Calm     93% 0.0 in WeatherDisplay:10.37 W/m2 FEW
07:30 -1.9 °F -2.9 °F 998.9 in Calm     93% 0.0 in WeatherDisplay:10.37 W/m2 FEW
07:35 -1.9 °F -2.9 °F 998.5 in Calm     93% 0.0 in WeatherDisplay:10.37 W/m2 FEW
07:40 -1.9 °F -2.9 °F 998.9 in Calm     93% 0.0 in WeatherDisplay:10.37 W/m2 FEW
07:45 -2.0 °F -3.0 °F 998.9 in Calm     93% 0.0 in WeatherDisplay:10.37 W/m2 FEW
07:50 -2.0 °F -3.0 °F 998.9 in Calm     93% 0.0 in WeatherDisplay:10.37 W/m2 FEW
07:55 -2.0 °F -3.0 °F 998.9 in Calm     93% 0.0 in WeatherDisplay:10.37 W/m2 FEW
08:00 -2.0 °F -3.0 °F 998.9 in Calm     93% 0.3 in WeatherDisplay:10.37 W/m2 RA
08:05 -2.0 °F -3.0 °F 998.9 in Calm     93% 0.3 in WeatherDisplay:10.37 W/m2 RA
08:10 -2.1 °F -3.1 °F 998.9 in Calm     93% 0.3 in WeatherDisplay:10.37 W/m2 FEW
08:15 -2.1 °F -3.1 °F 998.9 in Calm     93% 0.3 in WeatherDisplay:10.37 W/m2 FEW
08:20 -2.1 °F -3.1 °F 999.2 in Calm     93% 0.3 in WeatherDisplay:10.37 W/m2 FEW
08:25 -2.2 °F -3.2 °F 999.2 in ENE 1.1 mph 3.7 mph 93% 0.3 in WeatherDisplay:10.37 W/m2 FEW
08:30 -2.2 °F -3.2 °F 999.2 in Calm     93% 0.3 in WeatherDisplay:10.37 W/m2 FEW
08:35 -2.2 °F -3.2 °F 999.2 in Calm     93% 0.3 in WeatherDisplay:10.37 W/m2 FEW
08:40 -2.2 °F -3.2 °F 999.2 in Calm     93% 0.3 in WeatherDisplay:10.37 W/m2 FEW
08:45 -2.2 °F -3.2 °F 999.2 in Calm     93% 0.3 in WeatherDisplay:10.37 W/m2 FEW
08:50 -2.3 °F -3.3 °F 999.5 in Calm     93% 0.3 in WeatherDisplay:10.37 W/m2 FEW
08:55 -2.2 °F -3.2 °F 999.5 in Calm     93% 0.3 in WeatherDisplay:10.37 W/m2 FEW
09:00 -2.2 °F -3.2 °F 999.5 in Calm     93% 0.0 in WeatherDisplay:10.37 W/m2 FEW
09:05 -2.2 °F -3.2 °F 999.5 in ENE 1.6 mph 5.6 mph 93% 0.0 in WeatherDisplay:10.37 W/m2 FEW
09:10 -2.3 °F -3.3 °F 999.5 in Calm     93% 0.0 in WeatherDisplay:10.37 W/m2 FEW
09:15 -2.3 °F -3.3 °F 999.5 in Calm     93% 0.0 in WeatherDisplay:10.37 W/m2 FEW
09:20 -2.3 °F -3.3 °F 999.9 in Calm     93% 0.0 in WeatherDisplay:10.37 W/m2 FEW
09:25 -2.3 °F -3.3 °F 999.9 in Calm     93% 0.0 in WeatherDisplay:10.37 W/m2 FEW
09:30 -2.3 °F -3.3 °F 999.9 in Calm     93% 0.0 in WeatherDisplay:10.37 W/m2 FEW
09:35 -2.3 °F -3.3 °F 999.9 in Calm     93% 0.0 in WeatherDisplay:10.37 W/m2 FEW
09:40 -2.3 °F -3.3 °F 999.9 in Calm     93% 0.0 in WeatherDisplay:10.37 W/m2 FEW
09:45 -2.2 °F -3.2 °F 999.9 in ENE 0.5 mph 1.9 mph 93% 0.0 in WeatherDisplay:10.37 W/m2 FEW
09:50 -2.2 °F -3.2 °F 999.9 in Calm     93% 0.0 in WeatherDisplay:10.37 W/m2 FEW
09:55 -2.2 °F -3.2 °F 999.9 in Calm     93% 0.0 in WeatherDisplay:10.37 W/m2 FEW
10:00 -2.2 °F -3.2 °F 1000.2 in Calm     93% 0.0 in WeatherDisplay:10.37 W/m2 FEW
10:05 -2.2 °F -3.2 °F 1000.2 in Calm     93% 0.0 in WeatherDisplay:10.37 W/m2 FEW
10:10 -2.2 °F -3.2 °F 1000.2 in Calm     93% 0.0 in WeatherDisplay:10.37 W/m2 FEW
10:15 -2.2 °F -3.2 °F 1000.2 in Calm     93% 0.0 in WeatherDisplay:10.37 W/m2 FEW
10:20 -2.2 °F -3.2 °F 1000.2 in Calm     93% 0.0 in WeatherDisplay:10.37 W/m2 FEW
10:25 -2.2 °F -3.2 °F 1000.6 in Calm     93% 0.0 in WeatherDisplay:10.37 W/m2 FEW
10:30 -2.2 °F -3.2 °F 1000.6 in Calm     93% 0.0 in WeatherDisplay:10.37 W/m2 FEW
10:35 -2.2 °F -3.2 °F 1000.6 in Calm     93% 0.0 in WeatherDisplay:10.37 W/m2 FEW
10:40 -2.2 °F -3.2 °F 1000.6 in Calm     93% 0.0 in WeatherDisplay:10.37 W/m2 FEW
10:45 -2.2 °F -3.2 °F 1000.6 in Calm     93% 0.0 in WeatherDisplay:10.37 W/m2 FEW
10:50 -2.2 °F -3.2 °F 1000.9 in Calm     93% 0.0 in WeatherDisplay:10.37 W/m2 FEW
10:55 -2.1 °F -3.1 °F 1000.9 in Calm     93% 0.0 in WeatherDisplay:10.37 W/m2 FEW
11:00 -2.1 °F -3.1 °F 1000.9 in Calm     93% 0.0 in WeatherDisplay:10.37 W/m2 FEW
11:05 -2.1 °F -3.1 °F 1000.9 in Calm     93% 0.0 in WeatherDisplay:10.37 W/m2 FEW
11:10 -2.1 °F -3.1 °F 1000.9 in Calm   1.9 mph 93% 0.0 in WeatherDisplay:10.37 W/m2 FEW
11:15 -2.1 °F -3.1 °F 1001.2 in Calm     93% 0.0 in WeatherDisplay:10.37 W/m2 FEW
11:20 -2.1 °F -3.1 °F 1001.2 in ENE 0.3 mph 3.2 mph 93% 0.0 in WeatherDisplay:10.37 W/m2 FEW
11:25 -2.1 °F -3.1 °F 1001.2 in Calm     93% 0.0 in WeatherDisplay:10.37 W/m2 FEW
11:30 -2.1 °F -3.1 °F 1001.2 in NE 1.0 mph 3.7 mph 93% 0.0 in WeatherDisplay:10.37 W/m2 FEW
11:35 -2.2 °F -3.2 °F 1001.2 in NE 1.9 mph   93% 0.0 in WeatherDisplay:10.37 W/m2 FEW
11:40 -2.2 °F -3.3 °F 1001.2 in NE 0.5 mph 7.4 mph 92% 0.0 in WeatherDisplay:10.37 W/m2 FEW
11:45 -2.2 °F -3.3 °F 1001.2 in Calm     92% 0.0 in WeatherDisplay:10.37 W/m2 FEW
11:50 -2.2 °F -3.3 °F 1001.2 in Calm     92% 0.0 in WeatherDisplay:10.37 W/m2 FEW
11:55 -2.2 °F -3.3 °F 1001.6 in Calm     92% 0.0 in WeatherDisplay:10.37 W/m2 FEW
12:00 -2.2 °F -3.3 °F 1001.6 in NE 1.0 mph   92% 0.0 in WeatherDisplay:10.37 W/m2 FEW
12:05 -2.2 °F -3.3 °F 1001.6 in Calm     92% 0.0 in WeatherDisplay:10.37 W/m2 FEW
12:10 -2.2 °F -3.5 °F 1001.6 in NE 1.3 mph 5.6 mph 91% 0.0 in WeatherDisplay:10.37 W/m2 FEW
12:15 -2.2 °F -3.5 °F 1001.6 in NE 1.6 mph 3.7 mph 91% 0.0 in WeatherDisplay:10.37 W/m2 FEW
12:20 -2.2 °F -3.4 °F 1001.6 in Calm     91% 0.0 in WeatherDisplay:10.37 W/m2 FEW
12:25 -2.2 °F -3.4 °F 1001.6 in Calm     91% 0.0 in WeatherDisplay:10.37 W/m2 FEW
12:30 -2.2 °F -3.4 °F 1001.6 in Calm     91% 0.0 in WeatherDisplay:10.37 W/m2 FEW
12:35 -2.2 °F -3.4 °F 1001.6 in NE 2.1 mph 3.2 mph 91% 0.0 in WeatherDisplay:10.37 W/m2 FEW
12:40 -2.2 °F -3.4 °F 1001.9 in Calm     91% 0.0 in WeatherDisplay:10.37 W/m2 FEW
12:45 -2.1 °F -3.4 °F 1001.9 in NE 1.1 mph 3.2 mph 91% 0.0 in WeatherDisplay:10.37 W/m2 FEW
12:50 -2.1 °F -3.4 °F 1001.9 in NE 3.2 mph 6.4 mph 91% 0.0 in WeatherDisplay:10.37 W/m2 FEW
12:55 -2.2 °F -3.4 °F 1001.9 in Calm   5.6 mph 91% 0.0 in WeatherDisplay:10.37 W/m2 FEW
13:00 -2.2 °F -3.5 °F 1001.9 in Calm   1.9 mph 91% 0.0 in WeatherDisplay:10.37 W/m2 FEW
13:05 -2.2 °F -3.5 °F 1001.9 in Calm     91% 0.0 in WeatherDisplay:10.37 W/m2 FEW
13:10 -2.2 °F -3.5 °F 1001.9 in Calm     91% 0.0 in WeatherDisplay:10.37 W/m2 FEW
13:15 -2.2 °F -3.4 °F 1001.9 in Calm     91% 0.0 in WeatherDisplay:10.37 W/m2 FEW
13:20 -2.2 °F -3.4 °F 1001.9 in Calm     91% 0.0 in WeatherDisplay:10.37 W/m2 FEW
13:25 -2.2 °F -3.4 °F 1002.3 in Calm     91% 0.0 in WeatherDisplay:10.37 W/m2 FEW
13:30 -2.2 °F -3.5 °F 1002.3 in NE 0.3 mph 1.9 mph 91% 0.0 in WeatherDisplay:10.37 W/m2 FEW
13:35 -2.2 °F -3.5 °F 1002.3 in Calm   3.7 mph 91% 0.0 in WeatherDisplay:10.37 W/m2 FEW
13:40 -2.2 °F -3.3 °F 1002.3 in Calm     92% 0.0 in WeatherDisplay:10.37 W/m2 FEW
13:45 -2.2 °F -3.3 °F 1002.3 in Calm     92% 0.0 in WeatherDisplay:10.37 W/m2 FEW
13:50 -2.2 °F -3.3 °F 1002.3 in Calm     92% 0.0 in WeatherDisplay:10.37 W/m2 FEW
13:55 -2.2 °F -3.3 °F 1002.6 in Calm     92% 0.0 in WeatherDisplay:10.37 W/m2 FEW
14:00 -2.3 °F -3.4 °F 1002.6 in Calm     92% 0.0 in WeatherDisplay:10.37 W/m2 FEW
14:05 -2.3 °F -3.4 °F 1002.6 in NE 0.2 mph 1.6 mph 92% 0.0 in WeatherDisplay:10.37 W/m2 FEW
14:10 -2.3 °F -3.4 °F 1002.6 in NE 1.4 mph 5.6 mph 92% 0.0 in WeatherDisplay:10.37 W/m2 FEW
14:15 -2.3 °F -3.6 °F 1002.6 in Calm     91% 0.0 in WeatherDisplay:10.37 W/m2 FEW
14:20 -2.3 °F -3.4 °F 1002.9 in Calm     92% 0.0 in WeatherDisplay:10.37 W/m2 FEW
14:25 -2.3 °F -3.4 °F 1002.9 in Calm     92% 0.0 in WeatherDisplay:10.37 W/m2 FEW
14:30 -2.4 °F -3.5 °F 1002.9 in Calm     92% 0.0 in WeatherDisplay:10.37 W/m2 FEW
14:35 -2.3 °F -3.4 °F 1002.9 in Calm     92% 0.0 in WeatherDisplay:10.37 W/m2 FEW
14:40 -2.3 °F -3.4 °F 1002.9 in Calm     92% 0.0 in WeatherDisplay:10.37 W/m2 FEW
14:45 -2.4 °F -3.5 °F 1002.9 in Calm     92% 0.0 in WeatherDisplay:10.37 W/m2 FEW
14:50 -2.4 °F -3.5 °F 1003.3 in Calm     92% 0.0 in WeatherDisplay:10.37 W/m2 FEW
14:55 -2.4 °F -3.5 °F 1003.3 in Calm     92% 0.0 in WeatherDisplay:10.37 W/m2 FEW
15:00 -2.4 °F -3.5 °F 1003.3 in Calm     92% 0.0 in WeatherDisplay:10.37 W/m2 FEW
15:05 -2.4 °F -3.5 °F 1003.3 in Calm     92% 0.0 in WeatherDisplay:10.37 W/m2 FEW
15:10 -2.4 °F -3.5 °F 1003.3 in Calm     92% 0.0 in WeatherDisplay:10.37 W/m2 FEW
15:15 -2.3 °F -3.4 °F 1003.6 in NE 1.3 mph 1.6 mph 92% 0.0 in WeatherDisplay:10.37 W/m2 FEW
15:20 -2.4 °F -3.5 °F 1003.6 in Calm     92% 0.0 in WeatherDisplay:10.37 W/m2 FEW
15:25 -2.4 °F -3.6 °F 1003.6 in Calm     92% 0.0 in WeatherDisplay:10.37 W/m2 FEW
15:30 -2.5 °F -3.8 °F 1003.6 in NE 1.6 mph 3.7 mph 91% 0.0 in WeatherDisplay:10.37 W/m2 FEW
15:35 -2.6 °F -3.9 °F 1003.9 in Calm     91% 0.0 in WeatherDisplay:10.37 W/m2 FEW
15:40 -2.7 °F -3.9 °F 1003.9 in Calm     91% 0.0 in WeatherDisplay:10.37 W/m2 FEW
15:45 -2.7 °F -4.0 °F 1003.9 in NE 1.1 mph 5.6 mph 91% 0.0 in WeatherDisplay:10.37 W/m2 FEW
15:50 -2.8 °F -4.1 °F 1003.9 in Calm     91% 0.0 in WeatherDisplay:10.37 W/m2 FEW
15:55 -2.8 °F -4.1 °F 1003.9 in Calm     91% 0.0 in WeatherDisplay:10.37 W/m2 FEW
16:00 -2.8 °F -4.1 °F 1003.9 in Calm     91% 0.3 in WeatherDisplay:10.37 W/m2 RA
16:05 -2.8 °F -4.1 °F 1003.9 in Calm     91% 0.3 in WeatherDisplay:10.37 W/m2 RA
16:10 -2.8 °F -4.1 °F 1004.3 in Calm     91% 0.3 in WeatherDisplay:10.37 W/m2 FEW
16:15 -2.8 °F -4.1 °F 1004.3 in Calm     91% 0.3 in WeatherDisplay:10.37 W/m2 FEW
16:20 -2.8 °F -4.1 °F 1004.3 in Calm     91% 0.3 in WeatherDisplay:10.37 W/m2 FEW
16:25 -2.8 °F -4.1 °F 1004.3 in Calm     91% 0.3 in WeatherDisplay:10.37 W/m2 FEW
16:30 -2.8 °F -4.1 °F 1004.3 in Calm     91% 0.3 in WeatherDisplay:10.37 W/m2 FEW
16:35 -2.8 °F -4.1 °F 1004.3 in Calm     91% 0.3 in WeatherDisplay:10.37 W/m2 FEW
16:40 -2.9 °F -4.0 °F 1004.3 in Calm     92% 0.3 in WeatherDisplay:10.37 W/m2 FEW
16:45 -2.9 °F -4.1 °F 1004.3 in Calm     92% 0.3 in WeatherDisplay:10.37 W/m2 FEW
16:50 -2.9 °F -4.1 °F 1004.6 in Calm     92% 0.3 in WeatherDisplay:10.37 W/m2 FEW
16:55 -3.0 °F -4.1 °F 1004.6 in Calm     92% 0.3 in WeatherDisplay:10.37 W/m2 FEW
17:00 -3.0 °F -4.1 °F 1004.6 in Calm     92% 0.0 in WeatherDisplay:10.37 W/m2 FEW
17:05 -3.1 °F -4.2 °F 1004.6 in NE 0.5 mph 3.2 mph 92% 0.0 in WeatherDisplay:10.37 W/m2 FEW
17:10 -3.1 °F -4.2 °F 1004.6 in Calm   5.6 mph 92% 0.0 in WeatherDisplay:10.37 W/m2 FEW
17:15 -3.1 °F -4.0 °F 1004.6 in NE 3.2 mph 5.6 mph 93% 0.0 in WeatherDisplay:10.37 W/m2 FEW
17:20 -3.1 °F -4.1 °F 1004.6 in Calm     93% 0.0 in WeatherDisplay:10.37 W/m2 FEW
17:25 -3.1 °F -4.0 °F 1005.0 in Calm     93% 0.0 in WeatherDisplay:10.37 W/m2 FEW
17:30 -3.1 °F -4.0 °F 1005.0 in Calm     93% 0.0 in WeatherDisplay:10.37 W/m2 FEW
17:35 -3.1 °F -4.0 °F 1005.0 in Calm   5.6 mph 93% 0.0 in WeatherDisplay:10.37 W/m2 FEW
17:40 -3.1 °F -4.1 °F 1005.0 in NE 1.3 mph 1.6 mph 93% 0.0 in WeatherDisplay:10.37 W/m2 FEW
17:45 -3.1 °F -4.1 °F 1005.0 in NE 1.1 mph 4.8 mph 93% 0.0 in WeatherDisplay:10.37 W/m2 FEW
17:50 -3.1 °F -4.1 °F 1005.0 in Calm   5.6 mph 93% 0.0 in WeatherDisplay:10.37 W/m2 FEW
17:55 -3.1 °F -4.1 °F 1005.0 in Calm     93% 0.0 in WeatherDisplay:10.37 W/m2 FEW
18:00 -3.1 °F -4.1 °F 1005.0 in Calm     93% 0.0 in WeatherDisplay:10.37 W/m2 FEW
18:05 -3.1 °F -4.1 °F 1005.0 in Calm     93% 0.0 in WeatherDisplay:10.37 W/m2 FEW
18:10 -3.1 °F -4.1 °F 1005.3 in Calm     93% 0.0 in WeatherDisplay:10.37 W/m2 FEW
18:15 -3.1 °F -4.1 °F 1005.3 in NE 3.2 mph 5.6 mph 93% 0.0 in WeatherDisplay:10.37 W/m2 FEW
18:20 -3.1 °F -4.1 °F 1005.3 in Calm     93% 0.0 in WeatherDisplay:10.37 W/m2 FEW
18:25 -3.1 °F -4.1 °F 1005.3 in Calm     93% 0.0 in WeatherDisplay:10.37 W/m2 FEW
18:30 -3.1 °F -4.1 °F 1005.3 in Calm     93% 0.0 in WeatherDisplay:10.37 W/m2 FEW
18:35 -3.1 °F -4.1 °F 1005.3 in Calm     93% 0.0 in WeatherDisplay:10.37 W/m2 FEW
18:40 -3.1 °F -4.1 °F 1005.3 in Calm     93% 0.0 in WeatherDisplay:10.37 W/m2 FEW
18:45 -3.1 °F -4.1 °F 1005.3 in Calm     93% 0.0 in WeatherDisplay:10.37 W/m2 FEW
18:50 -3.2 °F -4.1 °F 1005.3 in Calm     93% 0.0 in WeatherDisplay:10.37 W/m2 FEW
18:55 -3.2 °F -4.1 °F 1005.6 in Calm     93% 0.0 in WeatherDisplay:10.37 W/m2 FEW
19:00 -3.2 °F -4.2 °F 1005.6 in Calm     93% 0.0 in WeatherDisplay:10.37 W/m2 FEW
19:05 -3.2 °F -4.2 °F 1005.6 in Calm     93% 0.0 in WeatherDisplay:10.37 W/m2 FEW
19:10 -3.2 °F -4.2 °F 1005.6 in Calm     93% 0.0 in WeatherDisplay:10.37 W/m2 FEW
19:15 -3.2 °F -4.1 °F 1005.6 in Calm     94% 0.0 in WeatherDisplay:10.37 W/m2 FEW
19:20 -3.2 °F -4.1 °F 1006.0 in Calm     94% 0.0 in WeatherDisplay:10.37 W/m2 FEW
19:25 -3.2 °F -4.1 °F 1006.0 in Calm     94% 0.0 in WeatherDisplay:10.37 W/m2 FEW
19:30 -3.2 °F -4.0 °F 1006.0 in Calm     94% 0.0 in WeatherDisplay:10.37 W/m2 FEW
19:35 -3.2 °F -4.0 °F 1006.0 in Calm     94% 0.0 in WeatherDisplay:10.37 W/m2 FEW
19:36 -3.2 °F -4.0 °F 1006.0 in Calm     94% 0.0 in WeatherDisplay:10.37 W/m2 FEW
19:41 -3.1 °F -3.9 °F 1006.0 in Calm     94% 0.0 in WeatherDisplay:10.37 W/m2 FEW
19:46 -3.1 °F -3.9 °F 1006.0 in Calm     94% 0.0 in WeatherDisplay:10.37 W/m2 FEW
19:51 -3.1 °F -3.9 °F 1006.0 in Calm     94% 0.3 in WeatherDisplay:10.37 W/m2 RA
19:56 -3.0 °F -3.8 °F 1006.0 in Calm     94% 0.3 in WeatherDisplay:10.37 W/m2 RA
20:01 -2.9 °F -3.8 °F 1006.3 in Calm     94% 0.3 in WeatherDisplay:10.37 W/m2 FEW
20:06 -2.9 °F -3.8 °F 1006.3 in Calm     94% 0.3 in WeatherDisplay:10.37 W/m2 FEW
20:11 -2.9 °F -3.8 °F 1006.3 in Calm     94% 0.3 in WeatherDisplay:10.37 W/m2 FEW
20:16 -2.9 °F -3.8 °F 1006.3 in Calm     94% 0.3 in WeatherDisplay:10.37 W/m2 FEW
20:21 -2.9 °F -3.8 °F 1006.3 in Calm     94% 0.3 in WeatherDisplay:10.37 W/m2 FEW
20:26 -2.9 °F -3.7 °F 1006.3 in Calm     94% 0.3 in WeatherDisplay:10.37 W/m2 FEW
20:31 -2.9 °F -3.8 °F 1006.3 in Calm     94% 0.3 in WeatherDisplay:10.37 W/m2 FEW
20:36 -2.8 °F -3.7 °F 1006.7 in Calm     94% 0.3 in WeatherDisplay:10.37 W/m2 FEW
20:41 -2.8 °F -3.7 °F 1006.7 in Calm     94% 0.3 in WeatherDisplay:10.37 W/m2 FEW
20:46 -2.9 °F -3.8 °F 1006.7 in Calm   1.9 mph 94% 0.3 in WeatherDisplay:10.37 W/m2 FEW
20:51 -3.0 °F -4.0 °F 1006.7 in NE 1.0 mph 1.6 mph 93% 0.0 in WeatherDisplay:10.37 W/m2 FEW
20:56 -3.1 °F -4.0 °F 1007.0 in Calm     93% 0.0 in WeatherDisplay:10.37 W/m2 FEW
21:01 -3.1 °F -4.1 °F 1007.0 in Calm     93% 0.0 in WeatherDisplay:10.37 W/m2 FEW
21:06 -3.1 °F -4.1 °F 1007.0 in Calm     93% 0.0 in WeatherDisplay:10.37 W/m2 FEW
21:11 -3.1 °F -4.1 °F 1007.0 in Calm     93% 0.0 in WeatherDisplay:10.37 W/m2 FEW
21:16 -3.1 °F -4.1 °F 1007.0 in Calm     93% 0.0 in WeatherDisplay:10.37 W/m2 FEW
21:21 -3.1 °F -4.0 °F 1007.0 in Calm     93% 0.0 in WeatherDisplay:10.37 W/m2 FEW
21:26 -3.1 °F -4.0 °F 1007.0 in Calm     93% 0.0 in WeatherDisplay:10.37 W/m2 FEW
21:31 -3.1 °F -4.0 °F 1007.0 in Calm     93% 0.0 in WeatherDisplay:10.37 W/m2 FEW
21:36 -3.1 °F -4.1 °F 1007.0 in Calm     93% 0.0 in WeatherDisplay:10.37 W/m2 FEW
21:41 -3.2 °F -4.1 °F 1007.0 in Calm     93% 0.0 in WeatherDisplay:10.37 W/m2 FEW
21:46 -3.2 °F -4.1 °F 1007.0 in Calm     93% 0.0 in WeatherDisplay:10.37 W/m2 FEW
21:51 -3.2 °F -4.2 °F 1007.3 in Calm     93% 0.0 in WeatherDisplay:10.37 W/m2 FEW
21:56 -3.2 °F -4.2 °F 1007.3 in Calm     93% 0.0 in WeatherDisplay:10.37 W/m2 FEW
22:01 -3.3 °F -4.4 °F 1007.3 in Calm     92% 0.0 in WeatherDisplay:10.37 W/m2 FEW
22:06 -3.3 °F -4.4 °F 1007.3 in Calm     92% 0.0 in WeatherDisplay:10.37 W/m2 FEW
22:11 -3.3 °F -4.4 °F 1007.3 in Calm     92% 0.0 in WeatherDisplay:10.37 W/m2 FEW
22:16 -3.3 °F -4.4 °F 1007.3 in Calm     92% 0.0 in WeatherDisplay:10.37 W/m2 FEW
22:21 -3.3 °F -4.4 °F 1007.3 in Calm     92% 0.0 in WeatherDisplay:10.37 W/m2 FEW
22:26 -3.3 °F -4.4 °F 1007.3 in Calm     92% 0.0 in WeatherDisplay:10.37 W/m2 FEW
22:31 -3.2 °F -4.3 °F 1007.7 in Calm     92% 0.0 in WeatherDisplay:10.37 W/m2 FEW
22:37 -3.3 °F -4.4 °F 1007.7 in Calm     92% 0.0 in WeatherDisplay:10.37 W/m2 FEW
22:42 -3.3 °F -4.4 °F 1007.7 in Calm     92% 0.0 in WeatherDisplay:10.37 W/m2 FEW
22:47 -3.4 °F -4.5 °F 1007.7 in Calm     92% 0.0 in WeatherDisplay:10.37 W/m2 FEW
22:52 -3.4 °F -4.5 °F 1007.7 in Calm     92% 0.0 in WeatherDisplay:10.37 W/m2 FEW
22:57 -3.4 °F -4.6 °F 1007.7 in Calm     92% 0.0 in WeatherDisplay:10.37 W/m2 FEW
23:02 -3.4 °F -4.6 °F 1007.7 in Calm     92% 0.0 in WeatherDisplay:10.37 W/m2 FEW
23:07 -3.5 °F -4.6 °F 1007.7 in Calm     92% 0.0 in WeatherDisplay:10.37 W/m2 FEW
23:12 -3.5 °F -4.6 °F 1008.0 in Calm     92% 0.0 in WeatherDisplay:10.37 W/m2 FEW
23:18 -3.6 °F -4.8 °F 1008.0 in Calm     91% 0.0 in WeatherDisplay:10.37 W/m2 FEW
23:23 -3.6 °F -4.8 °F 1008.0 in Calm     91% 0.0 in WeatherDisplay:10.37 W/m2 FEW
23:28 -3.6 °F -4.9 °F 1008.0 in Calm     91% 0.0 in WeatherDisplay:10.37 W/m2 FEW
23:33 -3.6 °F -4.9 °F 1008.0 in Calm     91% 0.0 in WeatherDisplay:10.37 W/m2 FEW
23:38 -3.6 °F -4.9 °F 1008.0 in Calm     91% 0.0 in WeatherDisplay:10.37 W/m2 FEW
23:43 -3.6 °F -4.9 °F 1008.0 in Calm     91% 0.0 in WeatherDisplay:10.37 W/m2 FEW
23:48 -3.6 °F -4.8 °F 1008.0 in Calm     91% 0.0 in WeatherDisplay:10.37 W/m2 FEW
23:53 -3.6 °F -4.8 °F 1008.0 in Calm     91% 0.0 in WeatherDisplay:10.37 W/m2 FEW
23:58 -3.6 °F -4.8 °F 1008.0 in Calm     91% 0.0 in WeatherDisplay:10.37 W/m2 FEW
Tuulensuunkaari, Veikkola, Suomi
Compliments of Weather Underground - 2.75 mb